Hoppa till innehåll

METAR väder och rapporter - EDDT

Nedan listas information från vald flygplats. Andra METARs finns längre ned på sidan. Kontakta oss om någon saknas eller skriv in egen ICAO-kod.

Coded METAR: 2020/11/09 06:50 EDDT 090650Z 09006KT 050V120 3000 BR OVC003 06/05 Q1027

Weather Report @ EDDT

Issued: 9th Nov 2020 at 07:50 CET

DATA TOO OLD TO BE USEFUL !

Coded TAF: 2020/11/08 23:07 TAF EDDT 082300Z 0823/0918 CNL= TAF AMD EGGD 082300Z 0823/0918 14005KT 6000 BKN008 TEMPO 0823/0908 2000 BR BKN002 PROB30 TEMPO 0823/0908 0800 FG BKN001 PROB30 TEMPO 0903/0911 SHRA BECMG 0908/0911 9999 SCT008 TEMPO 0911/0918 BKN008 PROB30 TEMPO 0911/0918 4000 SHRA

Weather Forecast @ EDDT

Issued: 9th Nov 2020 at 00:07 CET

Valid : 9th Nov 00:00 until 19:00 CET

00:00 CET
DATA TOO OLD TO BE USEFUL !

Internet delivery of weather data is not secure or reliable enough for operational purposes.

NEVER RELY ON THE OUTPUT OF THIS SCRIPT TO MAKE DECISIONS ABOUT ANYTHING IN WHICH THE WEATHER FORECAST AND ITS INTERPRETATION COULD BE AN ISSUE OF SAFETY.

Andra intressanta METARs

Klicka på önskad rubrik nedan för att visa nuvarande väder för den platsen.

Avstånd från stationen: NO 27kmESGG - Göteborg (Landvetter)
Uppdaterad: 2021-12-04 04:50
 Vind från ONO
Vind: ONO 17 km/h
Temperatur: -4°C
Vindavkylning: -9°C
Daggpunkt: -6°C
Luftfuktighet: 86%
Barometer: 996 hPa
Summering: Light Snow
Moln: Övervägande molnigt
Sikt: 10 km
Molninformation: Delvis molnigt 518 m
Övervägande molnigt 853 m
2021/12/04 03:50 ESGG 040350Z 07009KT 9999 -SN SCT017 BKN028 M04/M06 Q0996
Light snow, Övervägande molnigt
Light snow
Övervägande molnigt
  Visa detaljer för Göteborg (Landvetter)
Avstånd från stationen: N 28kmESGP - Göteborg (Säve)
Uppdaterad: 2021-12-04 05:24
 
unable to load ESGP data RC=404 Not Found
unable to load ESGP data RC=404 Not Found
  Visa detaljer för Göteborg (Säve)
Avstånd från stationen: NO 419kmESSA - Stockholm (Arlanda)
Uppdaterad: 2021-12-04 04:50
 Vind från NNO
Vind: NNO 4 km/h
Temperatur: -12°C
Daggpunkt: -14°C
Luftfuktighet: 85%
Barometer: 1002 hPa
Summering: Klart
Sikt: mer än 10 km
2021/12/04 03:50 ESSA 040350Z 02002KT CAVOK M12/M14 Q1002 NOSIG
Klart
Klart
  Visa detaljer för Stockholm (Arlanda)
Avstånd från stationen: ONO 404kmESSB - Stockholm (Bromma)
Uppdaterad: 2021-12-04 02:20
Ej aktuell
 Vind från calm
Vind: Vindstilla
Temperatur: -8°C
Daggpunkt: -9°C
Luftfuktighet: 93%
Barometer: 1002 hPa
Moln: Klart
Sikt: 10 km
2021/12/04 01:20 ESSB 040120Z AUTO 00000KT 9999 NCD M08/M09 Q1002
Klart
Klart
  Visa detaljer för Stockholm (Bromma)
Avstånd från stationen: ONO 323kmESKN - Stockholm (Skavsta)
Uppdaterad: 2021-12-04 04:50
 Vind från N
Vind: N 7 km/h
Temperatur: -6°C
Vindavkylning: -10°C
Daggpunkt: -6°C
Luftfuktighet: 100%
Barometer: 1002 hPa
Moln: Övervägande molnigt
Sikt: 10 km
Molninformation: Några få moln 91 m
Delvis molnigt 671 m
Övervägande molnigt 792 m
2021/12/04 03:50 ESKN 040350Z 01004KT 9999 FEW003 SCT022 BKN026 M06/M06 Q1002
Övervägande molnigt
Övervägande molnigt
  Visa detaljer för Stockholm (Skavsta)
Avstånd från stationen: SSO 238kmESMS - Malmö flygplats (Sturup)
Uppdaterad: 2021-12-04 04:50
 Vind från VSV
Vind: VSV 20 km/h
Temperatur: 5°C
Vindavkylning: 1°C
Daggpunkt: 5°C
Luftfuktighet: 100%
Barometer: 994 hPa
Moln: Genommulet
Sikt: 10 km
Molninformation: Genommulet 183 m
2021/12/04 03:50 ESMS 040350Z 24011KT 9999 OVC006 05/05 Q0994
Genommulet
Genommulet
  Visa detaljer för Malmö flygplats (Sturup)
Avstånd från stationen: O 382kmESSV - Visby flygplats
Uppdaterad: 2021-12-04 00:50
Ej aktuell
 Vind från O
Vind: O 6 km/h
Temperatur: -11°C
Daggpunkt: -12°C
Luftfuktighet: 92%
Barometer: 1000 hPa
Moln: Klart
Sikt: 10 km
2021/12/03 23:50 ESSV 032350Z AUTO 09003KT 9999 NCD M11/M12 Q1000
Klart
Klart
  Visa detaljer för Visby flygplats
Avstånd från stationen: NNO 92kmESGT - Trollhättan
Uppdaterad: 2021-12-03 16:20
Ej aktuell
 Vind från O
Vind: O 9 km/h
Temperatur: -7°C
Vindavkylning: -12°C
Daggpunkt: -8°C
Luftfuktighet: 93%
Barometer: 999 hPa
Moln: Klart
Sikt: 10 km
2021/12/03 15:20 ESGT 031520Z AUTO 09005KT 9999 NCD M07/M08 Q0999
Klart
Klart
  Visa detaljer för Trollhättan
Avstånd från stationen: ONO 129kmESGJ - Jönköpings flygplats
Uppdaterad: 2021-12-04 04:20
 Vind från NO
Vind: NO 13 km/h
Temperatur: -5°C
Vindavkylning: -10°C
Daggpunkt: -6°C
Luftfuktighet: 93%
Barometer: 997 hPa
Summering: Light Snow
Moln: Genommulet
Sikt: 10 km
Molninformation: Genommulet 549 m
2021/12/04 03:20 ESGJ 040320Z AUTO 05007KT 9999 -SN VV018 M05/M06 Q0997
Light snow, Genommulet
Light snow
Genommulet
  Visa detaljer för Jönköpings flygplats
Avstånd från stationen: NNO 229kmESOK - Karlstad
Uppdaterad: 2021-12-04 02:50
Ej aktuell
 Vind från NO
Vind: NO 13 km/h
Temperatur: -8°C
Vindavkylning: -13°C
Daggpunkt: -8°C
Luftfuktighet: 100%
Barometer: 1000 hPa
Moln: Klart
Sikt: 10 km
2021/12/04 01:50 ESOK 040150Z AUTO 05007KT 9999 NCD M08/M08 Q1000
Klart
Klart
  Visa detaljer för Karlstad
Avstånd från stationen: N 643kmESNZ - Östersund (Frösön)
Uppdaterad: 2021-12-04 00:50
Ej aktuell
 Vind från O
Vind: O 6 km/h
Temperatur: -11°C
Daggpunkt: -12°C
Luftfuktighet: 92%
Barometer: 1001 hPa
Summering: Light Snow
Moln: Genommulet
Sikt: 5 km
Molninformation: Genommulet 549 m
2021/12/03 23:50 ESNZ 032350Z AUTO 10003KT 4600 -SN VV018 M11/M12 Q1001
Light snow, Genommulet
Light snow
Genommulet
  Visa detaljer för Östersund (Frösön)
Avstånd från stationen: SSO 216kmEKCH - Köpenhamn (Kastrup)
Uppdaterad: 2021-12-04 04:50
 Vind från VSV
Vind: VSV 22 km/h
Temperatur: 5°C
Vindavkylning: 1°C
Daggpunkt: 4°C
Luftfuktighet: 93%
Barometer: 995 hPa
Moln: Övervägande molnigt
Sikt: 10 km
Molninformation: Delvis molnigt 366 m
Övervägande molnigt 1311 m
2021/12/04 03:50 EKCH 040350Z 24012KT 9999 SCT012 BKN043 05/04 Q0995 BECMG SCT008
Övervägande molnigt
Övervägande molnigt
  Visa detaljer för Köpenhamn (Kastrup)
Avstånd från stationen: SV 263kmEKBI - Billund Airport
Uppdaterad: 2021-12-03 07:50
Ej aktuell
 Vind från VSV
Vind: VSV 24 km/h
Temperatur: 1°C
Vindavkylning: -4°C
Daggpunkt: 0°C
Luftfuktighet: 93%
Barometer: 1000 hPa
Summering: Snow showers, Regn
Moln: Övervägande molnigt
Sikt: 5 km
Molninformation: Övervägande molnigt 274 m
2021/12/03 06:50 EKBI 030650Z 25013KT 220V280 5000 SHSNRA BKN009CB 01/00 Q1000
Snow showers, Regn, Övervägande molnigt
Snow showers
Regn
Övervägande molnigt
  Visa detaljer för Billund Airport
Avstånd från stationen: N 302kmENGM - Oslo (Gardermoen)
Uppdaterad: 2021-12-04 04:50
 Vind från NNO
Vind: NNO 9 km/h
Temperatur: -8°C
Vindavkylning: -12°C
Daggpunkt: -9°C
Luftfuktighet: 93%
Barometer: 1001 hPa
Moln: Övervägande molnigt
Sikt: 10 km
Molninformation: Några få moln 945 m
Övervägande molnigt 1554 m
2021/12/04 03:50 ENGM 040350Z 02005KT 9999 FEW031 BKN051 M08/M09 Q1001
Övervägande molnigt
Övervägande molnigt
  Visa detaljer för Oslo (Gardermoen)
Avstånd från stationen: NO 540kmEFMA - Mariehamn / Åland
Uppdaterad: 2021-12-04 04:50
 Vind från NNO
Vind: NNO 11 km/h
Temperatur: -5°C
Vindavkylning: -9°C
Daggpunkt: -6°C
Luftfuktighet: 93%
Barometer: 1004 hPa
Moln: Genommulet
Sikt: 10 km
Molninformation: Genommulet 366 m
2021/12/04 03:50 EFMA 040350Z AUTO 02006KT 9999 OVC012 M05/M06 Q1004
Genommulet
Genommulet
  Visa detaljer för Mariehamn / Åland
Avstånd från stationen: S 558kmEDDT - Berlin (Tegel), Germany
Uppdaterad: 2021-12-04 05:24
 
unable to load EDDT data RC=404 Not Found
unable to load EDDT data RC=404 Not Found
  Visa detaljer för Berlin (Tegel), Germany
Avstånd från stationen: SV 737kmEHAM - Amsterdam (Schiphol)
Uppdaterad: 2021-12-04 04:55
 Vind från S
Vind: S 13 km/h
Temperatur: 5°C
Vindavkylning: 2°C
Daggpunkt: 5°C
Luftfuktighet: 100%
Barometer: 997 hPa
Summering: Dimma
Moln: Genommulet
Sikt: 1 km
Molninformation: Delvis molnigt 0 m
Genommulet 30 m
2021/12/04 03:55 EHAM 040355Z 19007KT 0800 R18C/0800N R27/0900N R18R/1000N R06/0800N FG SCT000 OVC001 05/05 Q0997 NOSIG
Dimma, Genommulet
Dimma
Genommulet
  Visa detaljer för Amsterdam (Schiphol)
Avstånd från stationen: ONO 808kmEFHK - Helsingfors (Vantaa)
Uppdaterad: 2021-12-04 04:50
 Vind från NNO
Vind: NNO 11 km/h
Temperatur: -5°C
Vindavkylning: -9°C
Daggpunkt: -6°C
Luftfuktighet: 93%
Barometer: 1003 hPa
Summering: Light Snow
Moln: Övervägande molnigt
Sikt: 10 km
Molninformation: Övervägande molnigt 427 m
2021/12/04 03:50 EFHK 040350Z 02006KT 9999 -SN BKN014 M05/M06 Q1003 TEMPO BKN015
Light snow, Övervägande molnigt
Light snow
Övervägande molnigt
  Visa detaljer för Helsingfors (Vantaa)
Avstånd från stationen: SSV 537kmEDDW - Bremen
Uppdaterad: 2021-12-04 04:50
 Vind från SSV
Vind: SSV 11 km/h
Temperatur: 4°C
Vindavkylning: 1°C
Daggpunkt: 3°C
Luftfuktighet: 93%
Barometer: 998 hPa
Moln: Övervägande molnigt
Sikt: 10 km
Molninformation: Övervägande molnigt 213 m
2021/12/04 03:50 EDDW 040350Z 21006KT 180V250 9999 BKN007 04/03 Q0998 NOSIG
Övervägande molnigt
Övervägande molnigt
  Visa detaljer för Bremen
Avstånd från stationen: SSV 861kmEDDF - Frankfurt am Main
Uppdaterad: 2021-12-04 04:50
 Vind från S
Vind: S 7 km/h
Temperatur: 0°C
Vindavkylning: -3°C
Daggpunkt: 0°C
Luftfuktighet: 100%
Barometer: 1001 hPa
Summering: Light Snow
Moln: Genommulet
Sikt: 5 km
Molninformation: Övervägande molnigt 122 m
Genommulet 488 m
2021/12/04 03:50 EDDF 040350Z 17004KT 4500 -SN BKN004 OVC016 00/M00 Q1001 BECMG 6000 -SNRA
Light snow, Genommulet
Light snow
Genommulet
  Visa detaljer för Frankfurt am Main
Avstånd från stationen: SV 880kmEBBR - Bryssel international
Uppdaterad: 2021-12-04 04:50
 Vind från SO
Vind: SO 2 km/h
Temperatur: 4°C
Daggpunkt: 3°C
Luftfuktighet: 93%
Barometer: 997 hPa
Moln: Övervägande molnigt
Sikt: 10 km
Molninformation: Övervägande molnigt 274 m
2021/12/04 03:50 EBBR 040350Z 13001KT 9999 BKN009 04/03 Q0997 NOSIG
Övervägande molnigt
Övervägande molnigt
  Visa detaljer för Bryssel international
Avstånd från stationen: SV 738kmEHAM - Amsterdam (Schiphol)
Uppdaterad: 2021-12-04 04:55
 Vind från S
Vind: S 13 km/h
Temperatur: 5°C
Vindavkylning: 2°C
Daggpunkt: 5°C
Luftfuktighet: 100%
Barometer: 997 hPa
Summering: Dimma
Moln: Genommulet
Sikt: 1 km
Molninformation: Delvis molnigt 0 m
Genommulet 30 m
2021/12/04 03:55 EHAM 040355Z 19007KT 0800 R18C/0800N R27/0900N R18R/1000N R06/0800N FG SCT000 OVC001 05/05 Q0997 NOSIG
Dimma, Genommulet
Dimma
Genommulet
  Visa detaljer för Amsterdam (Schiphol)
Avstånd från stationen: SV 1044kmEGLL - London (Heathrow)
Uppdaterad: 2021-12-04 04:50
 Vind från SSV
Vind: SSV 6 km/h
Temperatur: 5°C
Daggpunkt: 5°C
Luftfuktighet: 100%
Barometer: 996 hPa
Summering: Dimma
Moln: Genommulet
Sikt: 1 km
Molninformation: Genommulet 61 m
2021/12/04 03:50 EGLL 040350Z AUTO 21003KT 0600 R27L/0900N FG OVC002 05/05 Q0996 BECMG 2000 BR SCT002
Dimma, Genommulet
Dimma
Genommulet
  Visa detaljer för London (Heathrow)
Avstånd från stationen: SV 1132kmLFPG - Paris (Charles de Gaulle)
Uppdaterad: 2021-12-04 05:00
 Vind från V
Vind: V 28 km/h
Temperatur: 11°C
Daggpunkt: 11°C
Luftfuktighet: 100%
Barometer: 997 hPa
Moln: Delvis molnigt
Sikt: 10 km
Molninformation: Övervägande molnigt 305 m
Delvis molnigt 396 m
2021/12/04 04:00 LFPG 040400Z 26015KT 9999 BKN010 SCT013 11/11 Q0997 NOSIG
Delvis molnigt
Delvis molnigt
  Visa detaljer för Paris (Charles de Gaulle)
Avstånd från stationen: SSV 1142kmLSZH - Zürich Airport
Uppdaterad: 2021-12-04 04:50
 Vind från S
Vind: S 20 km/h
Temperatur: 2°C
Vindavkylning: -3°C
Daggpunkt: 0°C
Luftfuktighet: 87%
Barometer: 1005 hPa
Summering: Light Snow
Moln: Övervägande molnigt
Sikt: 10 km
Molninformation: Delvis molnigt 305 m
Övervägande molnigt 457 m
2021/12/04 03:50 LSZH 040350Z AUTO 18011KT 9999 -SN SCT010 BKN015 02/00 Q1005 BECMG RA
Light snow, Övervägande molnigt
Light snow
Övervägande molnigt
  Visa detaljer för Zürich Airport
Avstånd från stationen: S 1749kmLIRF - Rome Airport (Fiumicino - Leonardo da Vinci)
Uppdaterad: 2021-12-04 04:50
 Vind från varierande
Vind: varierande 2 km/h
Temperatur: 5°C
Daggpunkt: 2°C
Luftfuktighet: 81%
Barometer: 1013 hPa
Summering: Klart
Sikt: mer än 10 km
2021/12/04 03:50 LIRF 040350Z VRB01KT CAVOK 05/02 Q1013 NOSIG
Klart
Klart
  Visa detaljer för Rome Airport (Fiumicino - Leonardo da Vinci)
Avstånd från stationen: SO 2679kmLTAI - Antalya
Uppdaterad: 2021-12-04 04:50
 Vind från N
Vind: N 6 km/h
Temperatur: 13°C
Daggpunkt: 12°C
Luftfuktighet: 94%
Barometer: 1018 hPa
Moln: Övervägande molnigt
Sikt: 10 km
Molninformation: Övervägande molnigt 914 m
2021/12/04 03:50 LTAI 040350Z 36003KT 9999 BKN030 13/12 Q1018 NOSIG RMK RWY18C 32004KT RWY36R 03003KT RWY18L 35003KT 320V020
Övervägande molnigt
Övervägande molnigt
  Visa detaljer för Antalya
Avstånd från stationen: VSV 6074kmKJFK - New Your (JFK)
Uppdaterad: 2021-12-04 04:51
 Vind från NNV
Vind: NNV 11 km/h
Temperatur: 3°C
Vindavkylning: 0°C
Daggpunkt: -6°C
Luftfuktighet: 52%
Barometer: 1019 hPa
Moln: Övervägande molnigt
Sikt: 16 km
Molninformation: Övervägande molnigt 3658 m
2021/12/04 03:51 KJFK 040351Z 34006KT 10SM BKN120 03/M06 A3009 RMK AO2 SLP187 T00331056
Övervägande molnigt
Övervägande molnigt
  Visa detaljer för New Your (JFK)
Avstånd från stationen: VSV 8848kmKLAX - Los Angeles International Airport
Uppdaterad: 2021-12-04 03:53
Ej aktuell
 Vind från VSV
Vind: VSV 11 km/h
Temperatur: 14°C
Daggpunkt: 11°C
Luftfuktighet: 82%
Barometer: 1019 hPa
Moln: Delvis molnigt
Sikt: 16 km
Molninformation: Delvis molnigt 427 m
2021/12/04 02:53 KLAX 040253Z 25006KT 10SM SCT014 14/11 A3009 RMK AO2 SLP187 T01390106 51010
Delvis molnigt
Delvis molnigt
  Visa detaljer för Los Angeles International Airport
Avstånd från stationen: SO 4968kmOMDB - Dubai International Airport
Uppdaterad: 2021-12-04 05:00
 Vind från S
Vind: S 9 km/h
Temperatur: 22°C
Daggpunkt: 16°C
Luftfuktighet: 69%
Barometer: 1018 hPa
Moln: Delvis molnigt
Sikt: 10 km
Molninformation: Delvis molnigt 1219 m
2021/12/04 04:00 OMDB 040400Z 19005KT 140V240 9999 SCT040 22/16 Q1018 NOSIG
Delvis molnigt
Delvis molnigt
  Visa detaljer för Dubai International Airport
Avstånd från stationen: OSO 8570kmRJTT - Tokyo International Airport
Uppdaterad: 2021-12-04 04:30
 Vind från ONO
Vind: ONO 9 km/h
Temperatur: 14°C
Daggpunkt: 4°C
Luftfuktighet: 51%
Barometer: 1010 hPa
Moln: Några få moln
Sikt: 10 km
Molninformation: Några få moln 914 m
2021/12/04 03:30 RJTT 040330Z 06005KT 9999 FEW030 14/04 Q1010 BECMG 18006KT RMK 1CU030 A2982
Några få moln
Några få moln
  Visa detaljer för Tokyo International Airport
Avstånd från stationen: OSO 7125kmZBAA - Peking (Beijing Capital)
Uppdaterad: 2021-12-04 04:30
 Vind från varierande
Vind: varierande 4 km/h
Temperatur: 10°C
Daggpunkt: -6°C
Luftfuktighet: 32%
Barometer: 1027 hPa
Summering: Klart
Sikt: mer än 10 km
2021/12/04 03:30 ZBAA 040330Z VRB01MPS CAVOK 10/M06 Q1027 NOSIG
Klart
Klart
  Visa detaljer för Peking (Beijing Capital)
VÄDER KURIOSA -  Weather TermsFreeze Warning - Widespread temperatures at or below 32°F during the growing season. A freeze may occur with or without frost. A hard freeze occurs with temperatures below 28°F. Growing season is based on the average date of first and last freeze at O'Hare. It begins April 17 and ends October 27.